sensor_id;sensor_type;location;lat;lon;timestamp;temperature;humidity
38131;DHT22;23947;51.894;4.622;2022-10-16T00:01:19;13.80;1.00
38131;DHT22;23947;51.894;4.622;2022-10-16T00:03:47;13.80;1.00
38131;DHT22;23947;51.894;4.622;2022-10-16T00:06:13;13.80;1.00
38131;DHT22;23947;51.894;4.622;2022-10-16T00:08:40;13.80;1.00
38131;DHT22;23947;51.894;4.622;2022-10-16T00:11:15;13.80;1.00
38131;DHT22;23947;51.894;4.622;2022-10-16T00:13:42;13.80;1.00
38131;DHT22;23947;51.894;4.622;2022-10-16T00:16:09;13.80;1.00
38131;DHT22;23947;51.894;4.622;2022-10-16T00:18:36;13.80;1.00
38131;DHT22;23947;51.894;4.622;2022-10-16T00:21:07;13.80;1.00
38131;DHT22;23947;51.894;4.622;2022-10-16T00:23:34;13.90;1.00
38131;DHT22;23947;51.894;4.622;2022-10-16T00:26:05;13.90;1.00
38131;DHT22;23947;51.894;4.622;2022-10-16T00:28:31;13.90;1.00
38131;DHT22;23947;51.894;4.622;2022-10-16T00:30:57;13.90;1.00
38131;DHT22;23947;51.894;4.622;2022-10-16T00:33:23;13.90;1.00
38131;DHT22;23947;51.894;4.622;2022-10-16T00:35:49;13.90;1.00
38131;DHT22;23947;51.894;4.622;2022-10-16T00:38:16;13.90;1.00
38131;DHT22;23947;51.894;4.622;2022-10-16T00:40:41;13.90;1.00
38131;DHT22;23947;51.894;4.622;2022-10-16T00:43:46;13.90;1.00
38131;DHT22;23947;51.894;4.622;2022-10-16T00:51:30;13.80;1.00
38131;DHT22;23947;51.894;4.622;2022-10-16T00:53:57;13.80;1.00
38131;DHT22;23947;51.894;4.622;2022-10-16T00:56:23;13.80;1.00
38131;DHT22;23947;51.894;4.622;2022-10-16T00:58:48;13.80;1.00
38131;DHT22;23947;51.894;4.622;2022-10-16T01:01:14;13.90;1.00
38131;DHT22;23947;51.894;4.622;2022-10-16T01:03:40;13.80;1.00
38131;DHT22;23947;51.894;4.622;2022-10-16T01:08:50;13.80;1.00
38131;DHT22;23947;51.894;4.622;2022-10-16T01:11:47;13.70;1.00
38131;DHT22;23947;51.894;4.622;2022-10-16T01:14:22;13.60;1.00
38131;DHT22;23947;51.894;4.622;2022-10-16T01:17:00;13.60;1.00
38131;DHT22;23947;51.894;4.622;2022-10-16T01:22:26;13.50;1.00
38131;DHT22;23947;51.894;4.622;2022-10-16T01:25:00;13.50;1.00
38131;DHT22;23947;51.894;4.622;2022-10-16T01:27:32;13.50;1.00
38131;DHT22;23947;51.894;4.622;2022-10-16T01:30:13;13.40;1.00
38131;DHT22;23947;51.894;4.622;2022-10-16T01:33:01;13.40;1.00
38131;DHT22;23947;51.894;4.622;2022-10-16T01:35:52;13.40;1.00
38131;DHT22;23947;51.894;4.622;2022-10-16T01:38:30;13.40;1.00
38131;DHT22;23947;51.894;4.622;2022-10-16T01:41:03;13.30;1.00
38131;DHT22;23947;51.894;4.622;2022-10-16T01:43:35;13.40;1.00
38131;DHT22;23947;51.894;4.622;2022-10-16T01:46:01;13.30;1.00
38131;DHT22;23947;51.894;4.622;2022-10-16T01:48:29;13.30;1.00
38131;DHT22;23947;51.894;4.622;2022-10-16T01:51:06;13.30;1.00
38131;DHT22;23947;51.894;4.622;2022-10-16T01:53:34;13.20;1.00
38131;DHT22;23947;51.894;4.622;2022-10-16T01:56:00;13.20;1.00
38131;DHT22;23947;51.894;4.622;2022-10-16T01:58:29;13.20;1.00
38131;DHT22;23947;51.894;4.622;2022-10-16T02:00:59;13.10;1.00
38131;DHT22;23947;51.894;4.622;2022-10-16T02:03:26;13.10;1.00
38131;DHT22;23947;51.894;4.622;2022-10-16T02:05:56;13.20;1.00
38131;DHT22;23947;51.894;4.622;2022-10-16T02:08:24;13.10;1.00
38131;DHT22;23947;51.894;4.622;2022-10-16T02:10:51;13.10;1.00
38131;DHT22;23947;51.894;4.622;2022-10-16T02:13:24;13.20;1.00
38131;DHT22;23947;51.894;4.622;2022-10-16T02:15:51;13.20;1.00
38131;DHT22;23947;51.894;4.622;2022-10-16T02:18:17;13.20;1.00
38131;DHT22;23947;51.894;4.622;2022-10-16T02:21:22;13.20;1.00
38131;DHT22;23947;51.894;4.622;2022-10-16T02:23:59;13.20;1.00
38131;DHT22;23947;51.894;4.622;2022-10-16T02:26:35;13.20;1.00
38131;DHT22;23947;51.894;4.622;2022-10-16T02:29:07;13.20;1.00
38131;DHT22;23947;51.894;4.622;2022-10-16T02:31:35;13.30;1.00
38131;DHT22;23947;51.894;4.622;2022-10-16T02:34:04;13.30;1.00
38131;DHT22;23947;51.894;4.622;2022-10-16T02:36:32;13.30;1.00
38131;DHT22;23947;51.894;4.622;2022-10-16T02:38:59;13.30;1.00
38131;DHT22;23947;51.894;4.622;2022-10-16T02:41:27;13.30;1.00
38131;DHT22;23947;51.894;4.622;2022-10-16T02:43:52;13.30;1.00
38131;DHT22;23947;51.894;4.622;2022-10-16T02:46:19;13.40;1.00
38131;DHT22;23947;51.894;4.622;2022-10-16T02:48:44;13.30;1.00
38131;DHT22;23947;51.894;4.622;2022-10-16T02:51:10;13.40;1.00
38131;DHT22;23947;51.894;4.622;2022-10-16T02:53:35;13.30;1.00
38131;DHT22;23947;51.894;4.622;2022-10-16T02:56:01;13.40;1.00
38131;DHT22;23947;51.894;4.622;2022-10-16T02:58:27;13.40;1.00
38131;DHT22;23947;51.894;4.622;2022-10-16T03:00:52;13.40;1.00
38131;DHT22;23947;51.894;4.622;2022-10-16T03:03:18;13.40;1.00
38131;DHT22;23947;51.894;4.622;2022-10-16T03:05:44;13.30;1.00
38131;DHT22;23947;51.894;4.622;2022-10-16T03:08:11;13.40;1.00
38131;DHT22;23947;51.894;4.622;2022-10-16T03:10:37;13.30;1.00
38131;DHT22;23947;51.894;4.622;2022-10-16T03:13:03;13.20;1.00
38131;DHT22;23947;51.894;4.622;2022-10-16T03:15:28;13.30;1.00
38131;DHT22;23947;51.894;4.622;2022-10-16T03:17:55;13.30;1.00
38131;DHT22;23947;51.894;4.622;2022-10-16T03:20:22;13.20;1.00
38131;DHT22;23947;51.894;4.622;2022-10-16T03:22:48;13.20;1.00
38131;DHT22;23947;51.894;4.622;2022-10-16T03:25:13;13.30;1.00
38131;DHT22;23947;51.894;4.622;2022-10-16T03:27:39;13.20;1.00
38131;DHT22;23947;51.894;4.622;2022-10-16T03:30:05;13.20;1.00
38131;DHT22;23947;51.894;4.622;2022-10-16T03:32:31;13.20;1.00
38131;DHT22;23947;51.894;4.622;2022-10-16T03:34:56;13.20;1.00
38131;DHT22;23947;51.894;4.622;2022-10-16T03:37:22;13.20;1.00
38131;DHT22;23947;51.894;4.622;2022-10-16T03:39:48;13.20;1.00
38131;DHT22;23947;51.894;4.622;2022-10-16T03:42:13;13.20;1.00
38131;DHT22;23947;51.894;4.622;2022-10-16T03:44:39;13.10;1.00
38131;DHT22;23947;51.894;4.622;2022-10-16T03:47:04;13.20;1.00
38131;DHT22;23947;51.894;4.622;2022-10-16T03:49:30;13.10;1.00
38131;DHT22;23947;51.894;4.622;2022-10-16T03:51:55;13.20;1.00
38131;DHT22;23947;51.894;4.622;2022-10-16T03:54:21;13.20;1.00
38131;DHT22;23947;51.894;4.622;2022-10-16T03:56:47;13.20;1.00
38131;DHT22;23947;51.894;4.622;2022-10-16T03:59:13;13.10;1.00
38131;DHT22;23947;51.894;4.622;2022-10-16T04:01:39;13.10;1.00
38131;DHT22;23947;51.894;4.622;2022-10-16T04:04:04;13.10;1.00
38131;DHT22;23947;51.894;4.622;2022-10-16T04:06:30;13.20;1.00
38131;DHT22;23947;51.894;4.622;2022-10-16T04:08:55;13.10;1.00
38131;DHT22;23947;51.894;4.622;2022-10-16T04:11:21;13.10;1.00
38131;DHT22;23947;51.894;4.622;2022-10-16T04:13:47;13.10;1.00
38131;DHT22;23947;51.894;4.622;2022-10-16T04:16:13;13.10;1.00
38131;DHT22;23947;51.894;4.622;2022-10-16T04:18:38;13.10;1.00
38131;DHT22;23947;51.894;4.622;2022-10-16T04:21:05;13.00;1.00
38131;DHT22;23947;51.894;4.622;2022-10-16T04:23:32;13.00;1.00
38131;DHT22;23947;51.894;4.622;2022-10-16T04:25:57;13.00;1.00
38131;DHT22;23947;51.894;4.622;2022-10-16T04:28:23;13.00;1.00
38131;DHT22;23947;51.894;4.622;2022-10-16T04:30:49;13.00;1.00
38131;DHT22;23947;51.894;4.622;2022-10-16T04:33:14;13.00;1.00
38131;DHT22;23947;51.894;4.622;2022-10-16T04:35:40;12.90;1.00
38131;DHT22;23947;51.894;4.622;2022-10-16T04:38:05;12.90;1.00
38131;DHT22;23947;51.894;4.622;2022-10-16T04:40:31;12.90;1.00
38131;DHT22;23947;51.894;4.622;2022-10-16T04:42:59;12.90;1.00
38131;DHT22;23947;51.894;4.622;2022-10-16T04:45:25;12.90;1.00
38131;DHT22;23947;51.894;4.622;2022-10-16T04:47:50;12.80;1.00
38131;DHT22;23947;51.894;4.622;2022-10-16T04:50:16;12.80;1.00
38131;DHT22;23947;51.894;4.622;2022-10-16T04:52:41;12.80;1.00
38131;DHT22;23947;51.894;4.622;2022-10-16T04:55:07;12.80;1.00
38131;DHT22;23947;51.894;4.622;2022-10-16T04:57:33;12.80;1.00
38131;DHT22;23947;51.894;4.622;2022-10-16T04:59:59;12.90;1.00
38131;DHT22;23947;51.894;4.622;2022-10-16T05:02:25;12.90;1.00
38131;DHT22;23947;51.894;4.622;2022-10-16T05:04:51;12.90;1.00
38131;DHT22;23947;51.894;4.622;2022-10-16T05:07:17;12.90;1.00
38131;DHT22;23947;51.894;4.622;2022-10-16T05:09:42;12.90;1.00
38131;DHT22;23947;51.894;4.622;2022-10-16T05:12:08;12.90;1.00
38131;DHT22;23947;51.894;4.622;2022-10-16T05:14:33;12.90;1.00
38131;DHT22;23947;51.894;4.622;2022-10-16T05:17:00;12.90;1.00
38131;DHT22;23947;51.894;4.622;2022-10-16T05:19:25;12.90;1.00
38131;DHT22;23947;51.894;4.622;2022-10-16T05:21:51;12.90;1.00
38131;DHT22;23947;51.894;4.622;2022-10-16T05:24:17;12.90;1.00
38131;DHT22;23947;51.894;4.622;2022-10-16T05:26:42;13.00;1.00
38131;DHT22;23947;51.894;4.622;2022-10-16T05:29:09;13.00;1.00
38131;DHT22;23947;51.894;4.622;2022-10-16T05:31:34;13.00;1.00
38131;DHT22;23947;51.894;4.622;2022-10-16T05:34:01;13.00;1.00
38131;DHT22;23947;51.894;4.622;2022-10-16T05:36:27;13.00;1.00
38131;DHT22;23947;51.894;4.622;2022-10-16T05:38:52;13.10;1.00
38131;DHT22;23947;51.894;4.622;2022-10-16T05:41:18;13.10;1.00
38131;DHT22;23947;51.894;4.622;2022-10-16T05:43:48;13.10;1.00
38131;DHT22;23947;51.894;4.622;2022-10-16T05:46:15;13.10;1.00
38131;DHT22;23947;51.894;4.622;2022-10-16T05:48:40;13.10;1.00
38131;DHT22;23947;51.894;4.622;2022-10-16T05:51:08;13.20;1.00
38131;DHT22;23947;51.894;4.622;2022-10-16T05:53:36;13.20;1.00
38131;DHT22;23947;51.894;4.622;2022-10-16T05:56:03;13.20;1.00
38131;DHT22;23947;51.894;4.622;2022-10-16T05:58:31;13.20;1.00
38131;DHT22;23947;51.894;4.622;2022-10-16T06:01:03;13.20;1.00
38131;DHT22;23947;51.894;4.622;2022-10-16T06:03:29;13.20;1.00
38131;DHT22;23947;51.894;4.622;2022-10-16T06:05:55;13.20;1.00
38131;DHT22;23947;51.894;4.622;2022-10-16T06:08:22;13.20;1.00
38131;DHT22;23947;51.894;4.622;2022-10-16T06:10:48;13.20;1.00
38131;DHT22;23947;51.894;4.622;2022-10-16T06:13:14;13.30;1.00
38131;DHT22;23947;51.894;4.622;2022-10-16T06:15:41;13.30;1.00
38131;DHT22;23947;51.894;4.622;2022-10-16T06:18:08;13.20;1.00
38131;DHT22;23947;51.894;4.622;2022-10-16T06:20:34;13.30;1.00
38131;DHT22;23947;51.894;4.622;2022-10-16T06:23:00;13.20;1.00
38131;DHT22;23947;51.894;4.622;2022-10-16T06:25:26;13.20;1.00
38131;DHT22;23947;51.894;4.622;2022-10-16T06:27:51;13.10;1.00
38131;DHT22;23947;51.894;4.622;2022-10-16T06:30:17;13.10;1.00
38131;DHT22;23947;51.894;4.622;2022-10-16T06:32:43;13.10;1.00
38131;DHT22;23947;51.894;4.622;2022-10-16T06:35:08;13.10;1.00
38131;DHT22;23947;51.894;4.622;2022-10-16T06:37:34;13.10;1.00
38131;DHT22;23947;51.894;4.622;2022-10-16T06:39:59;13.10;1.00
38131;DHT22;23947;51.894;4.622;2022-10-16T06:42:25;13.10;1.00
38131;DHT22;23947;51.894;4.622;2022-10-16T06:44:51;13.10;1.00
38131;DHT22;23947;51.894;4.622;2022-10-16T06:47:17;13.20;1.00
38131;DHT22;23947;51.894;4.622;2022-10-16T06:49:43;13.10;1.00
38131;DHT22;23947;51.894;4.622;2022-10-16T06:52:08;13.10;1.00
38131;DHT22;23947;51.894;4.622;2022-10-16T06:54:34;13.10;1.00
38131;DHT22;23947;51.894;4.622;2022-10-16T06:56:59;13.10;1.00
38131;DHT22;23947;51.894;4.622;2022-10-16T06:59:27;13.00;1.00
38131;DHT22;23947;51.894;4.622;2022-10-16T07:01:52;13.00;1.00
38131;DHT22;23947;51.894;4.622;2022-10-16T07:04:18;13.00;1.00
38131;DHT22;23947;51.894;4.622;2022-10-16T07:06:43;13.00;1.00
38131;DHT22;23947;51.894;4.622;2022-10-16T07:09:10;13.00;1.00
38131;DHT22;23947;51.894;4.622;2022-10-16T07:11:39;13.00;1.00
38131;DHT22;23947;51.894;4.622;2022-10-16T07:14:14;13.00;1.00
38131;DHT22;23947;51.894;4.622;2022-10-16T07:16:40;13.00;1.00
38131;DHT22;23947;51.894;4.622;2022-10-16T07:19:06;13.00;1.00
38131;DHT22;23947;51.894;4.622;2022-10-16T07:21:33;13.00;1.00
38131;DHT22;23947;51.894;4.622;2022-10-16T07:24:03;13.00;1.00
38131;DHT22;23947;51.894;4.622;2022-10-16T07:26:31;13.00;1.00
38131;DHT22;23947;51.894;4.622;2022-10-16T07:28:57;13.00;1.00
38131;DHT22;23947;51.894;4.622;2022-10-16T07:31:24;13.00;1.00
38131;DHT22;23947;51.894;4.622;2022-10-16T07:33:50;13.00;1.00
38131;DHT22;23947;51.894;4.622;2022-10-16T07:36:18;13.00;1.00
38131;DHT22;23947;51.894;4.622;2022-10-16T07:38:44;13.10;1.00
38131;DHT22;23947;51.894;4.622;2022-10-16T07:41:15;13.10;1.00
38131;DHT22;23947;51.894;4.622;2022-10-16T07:43:45;13.10;1.00
38131;DHT22;23947;51.894;4.622;2022-10-16T07:46:11;13.10;1.00
38131;DHT22;23947;51.894;4.622;2022-10-16T07:48:37;13.20;1.00
38131;DHT22;23947;51.894;4.622;2022-10-16T07:51:05;13.20;1.00
38131;DHT22;23947;51.894;4.622;2022-10-16T07:53:31;13.20;1.00
38131;DHT22;23947;51.894;4.622;2022-10-16T07:56:16;13.20;1.00
38131;DHT22;23947;51.894;4.622;2022-10-16T07:58:42;13.30;1.00
38131;DHT22;23947;51.894;4.622;2022-10-16T08:01:09;13.30;1.00
38131;DHT22;23947;51.894;4.622;2022-10-16T08:03:35;13.40;1.00
38131;DHT22;23947;51.894;4.622;2022-10-16T08:06:02;13.50;1.00
38131;DHT22;23947;51.894;4.622;2022-10-16T08:08:28;13.50;1.00
38131;DHT22;23947;51.894;4.622;2022-10-16T08:10:54;13.50;1.00
38131;DHT22;23947;51.894;4.622;2022-10-16T08:13:20;13.60;1.00
38131;DHT22;23947;51.894;4.622;2022-10-16T08:15:46;13.70;1.00
38131;DHT22;23947;51.894;4.622;2022-10-16T08:18:13;13.70;1.00
38131;DHT22;23947;51.894;4.622;2022-10-16T08:20:40;13.70;1.00
38131;DHT22;23947;51.894;4.622;2022-10-16T08:23:06;13.80;1.00
38131;DHT22;23947;51.894;4.622;2022-10-16T08:25:34;13.90;1.00
38131;DHT22;23947;51.894;4.622;2022-10-16T08:28:03;13.90;1.00
38131;DHT22;23947;51.894;4.622;2022-10-16T08:30:29;13.90;1.00
38131;DHT22;23947;51.894;4.622;2022-10-16T08:32:55;14.00;1.00
38131;DHT22;23947;51.894;4.622;2022-10-16T08:35:21;14.00;1.00
38131;DHT22;23947;51.894;4.622;2022-10-16T08:37:47;14.10;1.00
38131;DHT22;23947;51.894;4.622;2022-10-16T08:40:33;14.10;1.00
38131;DHT22;23947;51.894;4.622;2022-10-16T08:50:40;14.30;1.00
38131;DHT22;23947;51.894;4.622;2022-10-16T08:53:07;14.30;1.00
38131;DHT22;23947;51.894;4.622;2022-10-16T08:55:48;14.30;1.00
38131;DHT22;23947;51.894;4.622;2022-10-16T08:58:20;14.40;1.00
38131;DHT22;23947;51.894;4.622;2022-10-16T09:01:13;14.50;1.00
38131;DHT22;23947;51.894;4.622;2022-10-16T09:06:31;14.60;1.00
38131;DHT22;23947;51.894;4.622;2022-10-16T09:09:56;14.70;1.00
38131;DHT22;23947;51.894;4.622;2022-10-16T09:11:58;14.80;1.00
38131;DHT22;23947;51.894;4.622;2022-10-16T09:20:56;14.80;1.00
38131;DHT22;23947;51.894;4.622;2022-10-16T09:23:21;14.90;1.00
38131;DHT22;23947;51.894;4.622;2022-10-16T09:25:49;15.00;1.00
38131;DHT22;23947;51.894;4.622;2022-10-16T09:28:16;15.00;1.00
38131;DHT22;23947;51.894;4.622;2022-10-16T09:30:42;15.00;1.00
38131;DHT22;23947;51.894;4.622;2022-10-16T09:33:10;15.00;1.00
38131;DHT22;23947;51.894;4.622;2022-10-16T09:35:44;15.10;1.00
38131;DHT22;23947;51.894;4.622;2022-10-16T09:38:42;15.10;1.00
38131;DHT22;23947;51.894;4.622;2022-10-16T09:41:24;15.00;1.00
38131;DHT22;23947;51.894;4.622;2022-10-16T09:43:58;15.10;1.00
38131;DHT22;23947;51.894;4.622;2022-10-16T09:46:26;15.10;1.00
38131;DHT22;23947;51.894;4.622;2022-10-16T09:48:55;15.20;1.00
38131;DHT22;23947;51.894;4.622;2022-10-16T09:53:47;15.20;1.00
38131;DHT22;23947;51.894;4.622;2022-10-16T09:56:22;15.30;1.00
38131;DHT22;23947;51.894;4.622;2022-10-16T09:58:57;15.30;1.00
38131;DHT22;23947;51.894;4.622;2022-10-16T10:03:37;15.40;1.00
38131;DHT22;23947;51.894;4.622;2022-10-16T10:09:20;15.40;1.00
38131;DHT22;23947;51.894;4.622;2022-10-16T10:14:35;15.70;1.00
38131;DHT22;23947;51.894;4.622;2022-10-16T10:19:55;15.80;1.00
38131;DHT22;23947;51.894;4.622;2022-10-16T10:44:51;16.00;1.00
38131;DHT22;23947;51.894;4.622;2022-10-16T10:47:31;15.90;1.00
38131;DHT22;23947;51.894;4.622;2022-10-16T11:01:16;15.80;1.00
38131;DHT22;23947;51.894;4.622;2022-10-16T11:04:09;16.00;1.00
38131;DHT22;23947;51.894;4.622;2022-10-16T11:09:43;16.10;1.00
38131;DHT22;23947;51.894;4.622;2022-10-16T11:12:17;16.20;1.00
38131;DHT22;23947;51.894;4.622;2022-10-16T11:17:27;16.30;1.00
38131;DHT22;23947;51.894;4.622;2022-10-16T11:19:58;16.40;1.00
38131;DHT22;23947;51.894;4.622;2022-10-16T11:22:42;16.40;1.00
38131;DHT22;23947;51.894;4.622;2022-10-16T11:25:22;16.60;1.00
38131;DHT22;23947;51.894;4.622;2022-10-16T11:28:20;16.60;1.00
38131;DHT22;23947;51.894;4.622;2022-10-16T11:33:37;16.70;1.00
38131;DHT22;23947;51.894;4.622;2022-10-16T11:36:25;16.90;1.00
38131;DHT22;23947;51.894;4.622;2022-10-16T11:50:17;17.90;1.00
38131;DHT22;23947;51.894;4.622;2022-10-16T11:55:37;18.50;1.00
38131;DHT22;23947;51.894;4.622;2022-10-16T11:58:12;18.60;1.00
38131;DHT22;23947;51.894;4.622;2022-10-16T12:00:46;19.00;1.00
38131;DHT22;23947;51.894;4.622;2022-10-16T12:03:25;19.40;1.00
38131;DHT22;23947;51.894;4.622;2022-10-16T12:06:31;19.80;1.00
38131;DHT22;23947;51.894;4.622;2022-10-16T12:08:59;20.20;1.00
38131;DHT22;23947;51.894;4.622;2022-10-16T12:14:19;20.40;1.00
38131;DHT22;23947;51.894;4.622;2022-10-16T12:19:18;20.80;1.00
38131;DHT22;23947;51.894;4.622;2022-10-16T12:21:45;21.10;1.00
38131;DHT22;23947;51.894;4.622;2022-10-16T12:24:39;21.00;1.00
38131;DHT22;23947;51.894;4.622;2022-10-16T12:27:27;21.30;1.00
38131;DHT22;23947;51.894;4.622;2022-10-16T12:29:57;21.00;1.00
38131;DHT22;23947;51.894;4.622;2022-10-16T12:32:32;21.00;1.00
38131;DHT22;23947;51.894;4.622;2022-10-16T12:35:00;21.00;1.00
38131;DHT22;23947;51.894;4.622;2022-10-16T12:37:36;20.80;1.00
38131;DHT22;23947;51.894;4.622;2022-10-16T12:40:28;20.50;1.00
38131;DHT22;23947;51.894;4.622;2022-10-16T12:42:54;20.10;1.00
38131;DHT22;23947;51.894;4.622;2022-10-16T12:45:31;20.00;1.00
38131;DHT22;23947;51.894;4.622;2022-10-16T12:47:58;20.20;1.00
38131;DHT22;23947;51.894;4.622;2022-10-16T12:50:26;20.50;1.00
38131;DHT22;23947;51.894;4.622;2022-10-16T12:52:53;20.40;1.00
38131;DHT22;23947;51.894;4.622;2022-10-16T12:55:20;20.30;1.00
38131;DHT22;23947;51.894;4.622;2022-10-16T13:00:46;19.80;1.00
38131;DHT22;23947;51.894;4.622;2022-10-16T13:03:43;19.30;1.00
38131;DHT22;23947;51.894;4.622;2022-10-16T13:09:28;18.60;1.00
38131;DHT22;23947;51.894;4.622;2022-10-16T13:20:24;18.10;1.00
38131;DHT22;23947;51.894;4.622;2022-10-16T13:23:15;18.00;1.00
38131;DHT22;23947;51.894;4.622;2022-10-16T13:26:31;17.90;1.00
38131;DHT22;23947;51.894;4.622;2022-10-16T13:28:37;17.80;1.00
38131;DHT22;23947;51.894;4.622;2022-10-16T13:31:04;17.70;1.00
38131;DHT22;23947;51.894;4.622;2022-10-16T13:33:41;17.60;1.00
38131;DHT22;23947;51.894;4.622;2022-10-16T13:36:23;17.60;1.00
38131;DHT22;23947;51.894;4.622;2022-10-16T13:39:12;17.50;1.00
38131;DHT22;23947;51.894;4.622;2022-10-16T13:41:38;17.50;1.00
38131;DHT22;23947;51.894;4.622;2022-10-16T13:44:05;17.40;1.00
38131;DHT22;23947;51.894;4.622;2022-10-16T13:46:36;17.50;1.00
38131;DHT22;23947;51.894;4.622;2022-10-16T13:49:11;17.40;1.00
38131;DHT22;23947;51.894;4.622;2022-10-16T13:51:37;17.40;1.00
38131;DHT22;23947;51.894;4.622;2022-10-16T13:54:02;17.40;1.00
38131;DHT22;23947;51.894;4.622;2022-10-16T13:56:30;17.40;1.00
38131;DHT22;23947;51.894;4.622;2022-10-16T13:59:01;17.40;1.00
38131;DHT22;23947;51.894;4.622;2022-10-16T14:01:32;17.50;1.00
38131;DHT22;23947;51.894;4.622;2022-10-16T14:04:08;17.60;1.00
38131;DHT22;23947;51.894;4.622;2022-10-16T14:06:36;17.60;1.00
38131;DHT22;23947;51.894;4.622;2022-10-16T14:09:25;17.60;1.00
38131;DHT22;23947;51.894;4.622;2022-10-16T14:11:58;17.70;1.00
38131;DHT22;23947;51.894;4.622;2022-10-16T14:14:30;17.80;1.00
38131;DHT22;23947;51.894;4.622;2022-10-16T14:16:58;17.80;1.00
38131;DHT22;23947;51.894;4.622;2022-10-16T14:19:28;17.80;1.00
38131;DHT22;23947;51.894;4.622;2022-10-16T14:21:55;17.90;1.00
38131;DHT22;23947;51.894;4.622;2022-10-16T14:26:56;17.80;1.00
38131;DHT22;23947;51.894;4.622;2022-10-16T14:29:24;17.80;1.00
38131;DHT22;23947;51.894;4.622;2022-10-16T14:32:01;17.80;1.00
38131;DHT22;23947;51.894;4.622;2022-10-16T14:34:32;17.80;1.00
38131;DHT22;23947;51.894;4.622;2022-10-16T14:37:00;17.80;1.00
38131;DHT22;23947;51.894;4.622;2022-10-16T14:39:30;17.70;1.00
38131;DHT22;23947;51.894;4.622;2022-10-16T14:41:57;17.70;1.00
38131;DHT22;23947;51.894;4.622;2022-10-16T14:44:31;17.60;1.00
38131;DHT22;23947;51.894;4.622;2022-10-16T14:46:58;17.60;1.00
38131;DHT22;23947;51.894;4.622;2022-10-16T14:49:31;17.60;1.00
38131;DHT22;23947;51.894;4.622;2022-10-16T14:51:57;17.60;1.00
38131;DHT22;23947;51.894;4.622;2022-10-16T14:54:23;17.60;1.00
38131;DHT22;23947;51.894;4.622;2022-10-16T14:56:57;17.50;1.00
38131;DHT22;23947;51.894;4.622;2022-10-16T14:59:37;17.50;1.00
38131;DHT22;23947;51.894;4.622;2022-10-16T15:02:31;17.50;1.00
38131;DHT22;23947;51.894;4.622;2022-10-16T15:04:57;17.50;1.00
38131;DHT22;23947;51.894;4.622;2022-10-16T15:07:24;17.40;1.00
38131;DHT22;23947;51.894;4.622;2022-10-16T15:09:50;17.40;1.00
38131;DHT22;23947;51.894;4.622;2022-10-16T15:12:17;17.40;1.00
38131;DHT22;23947;51.894;4.622;2022-10-16T15:14:43;17.40;1.00
38131;DHT22;23947;51.894;4.622;2022-10-16T15:17:10;17.40;1.00
38131;DHT22;23947;51.894;4.622;2022-10-16T15:19:36;17.40;1.00
38131;DHT22;23947;51.894;4.622;2022-10-16T15:22:02;17.40;1.00
38131;DHT22;23947;51.894;4.622;2022-10-16T15:24:27;17.30;1.00
38131;DHT22;23947;51.894;4.622;2022-10-16T15:26:53;17.30;1.00
38131;DHT22;23947;51.894;4.622;2022-10-16T15:29:19;17.30;1.00
38131;DHT22;23947;51.894;4.622;2022-10-16T15:31:44;17.20;1.00
38131;DHT22;23947;51.894;4.622;2022-10-16T15:34:13;17.20;1.00
38131;DHT22;23947;51.894;4.622;2022-10-16T15:36:39;17.10;1.00
38131;DHT22;23947;51.894;4.622;2022-10-16T15:39:16;17.10;1.00
38131;DHT22;23947;51.894;4.622;2022-10-16T15:41:42;17.00;1.00
38131;DHT22;23947;51.894;4.622;2022-10-16T15:44:08;16.90;1.00
38131;DHT22;23947;51.894;4.622;2022-10-16T15:46:34;16.90;1.00
38131;DHT22;23947;51.894;4.622;2022-10-16T15:49:00;16.80;1.00
38131;DHT22;23947;51.894;4.622;2022-10-16T15:51:26;16.80;1.00
38131;DHT22;23947;51.894;4.622;2022-10-16T15:53:59;16.80;1.00
38131;DHT22;23947;51.894;4.622;2022-10-16T15:56:27;16.70;1.00
38131;DHT22;23947;51.894;4.622;2022-10-16T15:58:54;16.70;1.00
38131;DHT22;23947;51.894;4.622;2022-10-16T16:01:20;16.60;1.00
38131;DHT22;23947;51.894;4.622;2022-10-16T16:03:46;16.60;1.00
38131;DHT22;23947;51.894;4.622;2022-10-16T16:06:13;16.50;1.00
38131;DHT22;23947;51.894;4.622;2022-10-16T16:08:39;16.50;1.00
38131;DHT22;23947;51.894;4.622;2022-10-16T16:11:11;16.40;1.00
38131;DHT22;23947;51.894;4.622;2022-10-16T16:13:37;16.40;1.00
38131;DHT22;23947;51.894;4.622;2022-10-16T16:16:12;16.30;1.00
38131;DHT22;23947;51.894;4.622;2022-10-16T16:18:38;16.30;1.00
38131;DHT22;23947;51.894;4.622;2022-10-16T16:21:04;16.30;1.00
38131;DHT22;23947;51.894;4.622;2022-10-16T16:23:30;16.30;1.00
38131;DHT22;23947;51.894;4.622;2022-10-16T16:26:22;16.20;1.00
38131;DHT22;23947;51.894;4.622;2022-10-16T16:28:52;16.20;1.00
38131;DHT22;23947;51.894;4.622;2022-10-16T16:31:18;16.20;1.00
38131;DHT22;23947;51.894;4.622;2022-10-16T16:33:44;16.20;1.00
38131;DHT22;23947;51.894;4.622;2022-10-16T16:36:10;16.20;1.00
38131;DHT22;23947;51.894;4.622;2022-10-16T16:38:35;16.10;1.00
38131;DHT22;23947;51.894;4.622;2022-10-16T16:41:12;16.10;1.00
38131;DHT22;23947;51.894;4.622;2022-10-16T16:43:37;16.00;1.00
38131;DHT22;23947;51.894;4.622;2022-10-16T16:46:03;16.00;1.00
38131;DHT22;23947;51.894;4.622;2022-10-16T16:48:29;16.00;1.00
38131;DHT22;23947;51.894;4.622;2022-10-16T16:50:54;15.90;1.00
38131;DHT22;23947;51.894;4.622;2022-10-16T16:53:21;15.90;1.00
38131;DHT22;23947;51.894;4.622;2022-10-16T16:55:47;15.80;1.00
38131;DHT22;23947;51.894;4.622;2022-10-16T16:58:13;15.80;1.00
38131;DHT22;23947;51.894;4.622;2022-10-16T17:00:45;15.80;1.00
38131;DHT22;23947;51.894;4.622;2022-10-16T17:03:11;15.70;1.00
38131;DHT22;23947;51.894;4.622;2022-10-16T17:05:36;15.70;1.00
38131;DHT22;23947;51.894;4.622;2022-10-16T17:08:02;15.70;1.00
38131;DHT22;23947;51.894;4.622;2022-10-16T17:10:31;15.60;1.00
38131;DHT22;23947;51.894;4.622;2022-10-16T17:12:56;15.60;1.00
38131;DHT22;23947;51.894;4.622;2022-10-16T17:15:22;15.60;1.00
38131;DHT22;23947;51.894;4.622;2022-10-16T17:17:48;15.50;1.00
38131;DHT22;23947;51.894;4.622;2022-10-16T17:20:14;15.50;1.00
38131;DHT22;23947;51.894;4.622;2022-10-16T17:22:39;15.60;1.00
38131;DHT22;23947;51.894;4.622;2022-10-16T17:25:06;15.50;1.00
38131;DHT22;23947;51.894;4.622;2022-10-16T17:27:33;15.50;1.00
38131;DHT22;23947;51.894;4.622;2022-10-16T17:30:00;15.50;1.00
38131;DHT22;23947;51.894;4.622;2022-10-16T17:32:26;15.50;1.00
38131;DHT22;23947;51.894;4.622;2022-10-16T17:34:51;15.40;1.00
38131;DHT22;23947;51.894;4.622;2022-10-16T17:37:17;15.50;1.00
38131;DHT22;23947;51.894;4.622;2022-10-16T17:39:43;15.50;1.00
38131;DHT22;23947;51.894;4.622;2022-10-16T17:42:08;15.50;1.00
38131;DHT22;23947;51.894;4.622;2022-10-16T17:44:34;15.40;1.00
38131;DHT22;23947;51.894;4.622;2022-10-16T17:46:59;15.40;1.00
38131;DHT22;23947;51.894;4.622;2022-10-16T17:49:25;15.40;1.00
38131;DHT22;23947;51.894;4.622;2022-10-16T17:51:52;15.40;1.00
38131;DHT22;23947;51.894;4.622;2022-10-16T17:54:18;15.40;1.00
38131;DHT22;23947;51.894;4.622;2022-10-16T17:56:44;15.40;1.00
38131;DHT22;23947;51.894;4.622;2022-10-16T17:59:10;15.40;1.00